createdAt,value
2023-03-23T15:59:53.591Z,10.07
2023-03-23T16:02:21.624Z,10.03
2023-03-23T16:04:48.653Z,9.99
2023-03-23T16:07:20.263Z,10.03
2023-03-23T16:09:47.238Z,10.10
2023-03-23T16:12:16.367Z,10.21
2023-03-23T16:14:47.834Z,10.39
2023-03-23T16:17:20.218Z,10.60
2023-03-23T16:19:46.861Z,10.70
2023-03-23T16:22:13.565Z,10.68
2023-03-23T16:24:40.511Z,10.67
2023-03-23T16:27:07.183Z,10.66
2023-03-23T16:29:50.504Z,10.55
2023-03-23T16:32:20.494Z,10.50
2023-03-23T16:34:47.415Z,10.44
2023-03-23T16:37:14.158Z,10.34
2023-03-23T16:39:41.237Z,10.27
2023-03-23T16:42:09.106Z,10.18
2023-03-23T16:44:35.879Z,10.10
2023-03-23T16:47:05.738Z,10.15
2023-03-23T16:49:33.042Z,10.09
2023-03-23T16:51:59.834Z,10.11
2023-03-23T16:54:27.948Z,10.18
2023-03-23T16:56:54.959Z,10.15
2023-03-23T16:59:21.848Z,10.08
2023-03-23T17:01:48.655Z,10.03
2023-03-23T17:04:15.948Z,10.01
2023-03-23T17:06:46.890Z,9.99
2023-03-23T17:09:14.241Z,10.08
2023-03-23T17:11:41.733Z,10.02
2023-03-23T17:14:08.386Z,9.90
2023-03-23T17:16:35.046Z,9.94
2023-03-23T17:19:01.764Z,10.02
2023-03-23T17:21:29.483Z,9.91
2023-03-23T17:23:58.966Z,9.85
2023-03-23T17:31:41.855Z,9.47
2023-03-23T17:34:08.774Z,9.52
2023-03-23T17:36:36.166Z,9.62
2023-03-23T17:39:03.740Z,9.39
2023-03-23T17:41:32.809Z,9.47
2023-03-23T17:43:59.420Z,9.40
2023-03-23T17:46:29.417Z,9.32
2023-03-23T17:51:44.535Z,8.99
2023-03-23T17:57:00.194Z,8.76
2023-03-23T17:59:30.509Z,8.85
2023-03-23T18:01:58.240Z,8.89
2023-03-23T18:04:27.873Z,8.91
2023-03-23T18:06:58.302Z,8.93
2023-03-23T18:09:29.805Z,8.80
2023-03-23T18:12:01.506Z,8.68
2023-03-23T18:14:28.555Z,8.58
2023-03-23T18:16:57.660Z,8.77
2023-03-23T18:19:24.702Z,8.85
2023-03-23T18:27:21.764Z,8.59
2023-03-23T18:29:49.254Z,8.79
2023-03-23T18:32:19.490Z,8.78
2023-03-23T18:34:57.179Z,8.80
2023-03-23T18:37:55.068Z,8.73
2023-03-23T18:40:21.913Z,8.63
2023-03-23T18:42:50.166Z,8.66
2023-03-23T18:45:19.770Z,8.64
2023-03-23T18:47:46.794Z,8.46
2023-03-23T18:50:13.691Z,8.52
2023-03-23T18:55:15.310Z,8.39
2023-03-23T19:03:06.862Z,8.53
2023-03-23T19:05:34.442Z,8.66
2023-03-23T19:13:37.542Z,8.59
2023-03-23T19:16:05.806Z,8.56
2023-03-23T19:24:01.459Z,8.88
2023-03-23T19:32:07.098Z,8.98
2023-03-23T19:34:50.971Z,9.03
2023-03-23T19:40:22.634Z,9.08
2023-03-23T20:13:28.378Z,8.71
2023-03-23T20:32:38.499Z,8.87
2023-03-23T20:35:09.937Z,8.83
2023-03-23T20:37:48.945Z,8.81
2023-03-23T20:51:16.038Z,8.99
2023-03-23T20:59:02.157Z,9.05
2023-03-23T21:39:35.217Z,9.29
2023-03-23T21:44:45.772Z,9.29
2023-03-23T21:56:10.513Z,9.40
2023-03-23T21:58:40.556Z,9.46
2023-03-23T22:01:10.537Z,9.48
2023-03-23T22:06:44.900Z,9.38
2023-03-23T22:17:54.917Z,9.18
2023-03-23T22:20:34.689Z,9.22
2023-03-23T22:25:32.354Z,9.13
2023-03-23T22:28:02.636Z,9.17
2023-03-23T22:36:23.049Z,8.97
2023-03-23T22:47:30.954Z,8.87
2023-03-23T22:55:36.202Z,8.72
2023-03-23T23:00:44.681Z,8.69
2023-03-23T23:03:12.623Z,8.62
2023-03-23T23:05:43.165Z,8.57
2023-03-23T23:08:13.819Z,8.52
2023-03-23T23:10:43.916Z,8.50
2023-03-23T23:13:11.126Z,8.54
2023-03-23T23:15:38.076Z,8.61
2023-03-23T23:18:05.226Z,8.57
2023-03-23T23:20:33.405Z,8.50
2023-03-23T23:23:00.667Z,8.48
2023-03-23T23:25:28.660Z,8.46
2023-03-23T23:27:58.958Z,8.47
2023-03-23T23:30:26.252Z,8.45
2023-03-23T23:32:52.887Z,8.44
2023-03-23T23:35:19.991Z,8.48
2023-03-23T23:37:46.770Z,8.56
2023-03-23T23:40:16.129Z,8.53
2023-03-23T23:42:43.507Z,8.53
2023-03-23T23:45:10.548Z,8.51
2023-03-23T23:47:37.651Z,8.51
2023-03-23T23:50:04.947Z,8.53
2023-03-23T23:52:31.456Z,8.54
2023-03-23T23:54:58.035Z,8.53
2023-03-23T23:57:24.758Z,8.54
2023-03-23T23:59:51.744Z,8.57
